Time;durP1;ratioP1;P1;durP2;ratioP2;P2;SDS_P1;SDS_P2;PMS_P1;PMS_P2;Temp;Humidity;BMP_temperature;BMP_pressure;BME280_temperature;BME280_humidity;BME280_pressure;Samples;Min_cycle;Max_cycle;Signal;HPM_P1;HPM_P2
2024/02/08 00:02:06;;;;;;;12.73;7.20;;;;;;;;;;5048835;28;20210;-72
2024/02/08 00:04:34;;;;;;;18.23;7.83;;;;;;;;;;5045825;28;20178;-72
2024/02/08 00:06:59;;;;;;;17.63;7.13;;;;;;;;;;5027503;28;20197;-71
2024/02/08 00:09:25;;;;;;;9.73;6.43;;;;;;;;;;5037614;28;20682;-71
2024/02/08 00:11:50;;;;;;;14.53;7.80;;;;;;;;;;5046375;28;20189;-72
2024/02/08 00:14:15;;;;;;;15.07;6.97;;;;;;;;;;5026454;28;20181;-71
2024/02/08 00:16:40;;;;;;;14.73;6.73;;;;;;;;;;5043005;28;20198;-71
2024/02/08 00:19:05;;;;;;;13.60;7.47;;;;;;;;;;5034142;28;20220;-72
2024/02/08 00:21:32;;;;;;;12.20;6.83;;;;;;;;;;5051150;28;20199;-72
2024/02/08 00:23:57;;;;;;;17.37;6.87;;;;;;;;;;5047012;28;20181;-72
2024/02/08 00:26:22;;;;;;;26.07;10.47;;;;;;;;;;5040685;28;20301;-71
2024/02/08 00:28:47;;;;;;;13.83;7.63;;;;;;;;;;5043041;28;20181;-71
2024/02/08 00:31:13;;;;;;;14.10;8.53;;;;;;;;;;5042014;28;20220;-71
2024/02/08 00:33:38;;;;;;;17.23;7.97;;;;;;;;;;5045610;28;20182;-71
2024/02/08 00:36:03;;;;;;;18.73;8.13;;;;;;;;;;5043058;28;20221;-71
2024/02/08 00:38:29;;;;;;;15.30;7.57;;;;;;;;;;5041682;28;20327;-71
2024/02/08 00:40:55;;;;;;;13.23;9.13;;;;;;;;;;5022827;28;20209;-71
2024/02/08 00:43:20;;;;;;;12.80;7.37;;;;;;;;;;5043637;28;20192;-72
2024/02/08 00:45:46;;;;;;;17.47;9.10;;;;;;;;;;5033402;28;20309;-71
2024/02/08 00:48:11;;;;;;;16.17;7.43;;;;;;;;;;5017833;28;20232;-71
2024/02/08 00:50:36;;;;;;;21.73;8.73;;;;;;;;;;5049288;28;20240;-72
2024/02/08 00:53:05;;;;;;;17.80;7.50;;;;;;;;;;5031528;28;20193;-71
2024/02/08 00:55:30;;;;;;;20.73;8.30;;;;;;;;;;5046313;28;20207;-71
2024/02/08 00:57:56;;;;;;;16.03;7.30;;;;;;;;;;5048332;28;20563;-72
2024/02/08 01:00:21;;;;;;;12.90;7.50;;;;;;;;;;5049659;28;20607;-71
2024/02/08 01:02:46;;;;;;;14.87;8.27;;;;;;;;;;5039515;28;20192;-72
2024/02/08 01:05:11;;;;;;;19.03;7.70;;;;;;;;;;5043805;28;20231;-72
2024/02/08 01:07:36;;;;;;;14.93;8.00;;;;;;;;;;5045129;28;20182;-72
2024/02/08 01:10:02;;;;;;;16.90;7.17;;;;;;;;;;5046339;28;20645;-71
2024/02/08 01:12:27;;;;;;;12.77;6.87;;;;;;;;;;5043193;28;20272;-71
2024/02/08 01:14:53;;;;;;;17.57;7.40;;;;;;;;;;5043052;28;20204;-71
2024/02/08 01:17:18;;;;;;;20.63;7.23;;;;;;;;;;5048289;28;20194;-71
2024/02/08 01:19:43;;;;;;;19.40;7.57;;;;;;;;;;5046235;28;20595;-70
2024/02/08 01:22:09;;;;;;;14.87;8.30;;;;;;;;;;5026495;28;20280;-70
2024/02/08 01:24:34;;;;;;;14.03;7.73;;;;;;;;;;5047619;28;20625;-71
2024/02/08 01:27:00;;;;;;;15.63;7.77;;;;;;;;;;5032051;28;20774;-71
2024/02/08 01:29:26;;;;;;;18.97;8.20;;;;;;;;;;5049950;28;20195;-71
2024/02/08 01:31:52;;;;;;;13.50;7.73;;;;;;;;;;5028457;28;20201;-70
2024/02/08 01:34:17;;;;;;;17.67;7.83;;;;;;;;;;5044677;28;20185;-72
2024/02/08 01:36:42;;;;;;;15.00;7.37;;;;;;;;;;5044869;28;20212;-71
2024/02/08 01:39:13;;;;;;;16.00;6.80;;;;;;;;;;5037351;28;20267;-71
2024/02/08 01:41:42;;;;;;;16.90;8.57;;;;;;;;;;5044529;28;20201;-71
2024/02/08 01:44:08;;;;;;;19.90;8.27;;;;;;;;;;5041607;28;20660;-71
2024/02/08 01:46:38;;;;;;;17.50;8.70;;;;;;;;;;5041851;28;20209;-71
2024/02/08 01:49:15;;;;;;;18.33;7.40;;;;;;;;;;5045099;28;20253;-71
2024/02/08 01:51:41;;;;;;;17.17;8.43;;;;;;;;;;5025802;28;20181;-71
2024/02/08 01:54:08;;;;;;;13.50;7.97;;;;;;;;;;5030187;28;20208;-70
2024/02/08 01:56:34;;;;;;;19.03;9.07;;;;;;;;;;5049816;28;20193;-71
2024/02/08 01:59:00;;;;;;;20.07;7.77;;;;;;;;;;5034138;28;20205;-70
2024/02/08 02:01:25;;;;;;;16.23;8.63;;;;;;;;;;5046600;28;20194;-71
2024/02/08 02:03:50;;;;;;;21.77;8.37;;;;;;;;;;5043239;28;20292;-71
2024/02/08 02:06:15;;;;;;;15.63;8.53;;;;;;;;;;5041860;28;20288;-70
2024/02/08 02:08:52;;;;;;;15.27;8.23;;;;;;;;;;5046749;28;20182;-72
2024/02/08 02:11:20;;;;;;;18.43;8.07;;;;;;;;;;5029700;28;20181;-71
2024/02/08 02:13:47;;;;;;;14.87;8.83;;;;;;;;;;5044797;28;20231;-71
2024/02/08 02:16:12;;;;;;;17.73;8.60;;;;;;;;;;5023477;28;20217;-71
2024/02/08 02:18:39;;;;;;;15.97;7.97;;;;;;;;;;5042354;28;20255;-71
2024/02/08 02:21:04;;;;;;;16.63;8.40;;;;;;;;;;5047094;28;20256;-71
2024/02/08 02:23:29;;;;;;;19.80;9.80;;;;;;;;;;5044927;28;20173;-71
2024/02/08 02:25:55;;;;;;;16.33;7.93;;;;;;;;;;5039353;22;20208;-66
2024/02/08 02:28:20;;;;;;;20.30;9.17;;;;;;;;;;5059854;28;20255;-67
2024/02/08 02:30:46;;;;;;;15.77;8.60;;;;;;;;;;5057400;28;20183;-68
2024/02/08 02:33:13;;;;;;;19.30;9.10;;;;;;;;;;5067407;28;20380;-68
2024/02/08 02:35:38;;;;;;;19.70;8.33;;;;;;;;;;5069725;28;20207;-68
2024/02/08 02:38:04;;;;;;;20.07;9.40;;;;;;;;;;5065233;28;20705;-67
2024/02/08 02:40:30;;;;;;;18.90;9.07;;;;;;;;;;5067292;28;20205;-66
2024/02/08 02:42:55;;;;;;;15.30;8.43;;;;;;;;;;5064821;28;20173;-68
2024/02/08 02:45:28;;;;;;;22.33;10.60;;;;;;;;;;5058154;28;20637;-67
2024/02/08 02:47:53;;;;;;;18.27;9.00;;;;;;;;;;5062981;28;20201;-67
2024/02/08 02:50:23;;;;;;;25.80;9.47;;;;;;;;;;5058564;28;20331;-67
2024/02/08 02:52:49;;;;;;;19.10;10.03;;;;;;;;;;5063818;28;20260;-67
2024/02/08 02:55:15;;;;;;;18.03;9.40;;;;;;;;;;5066411;28;20709;-66
2024/02/08 02:57:41;;;;;;;19.03;9.07;;;;;;;;;;5065413;28;20330;-67
2024/02/08 03:00:21;;;;;;;26.00;10.67;;;;;;;;;;5062389;28;20271;-68
2024/02/08 03:02:48;;;;;;;23.93;11.33;;;;;;;;;;5050617;28;20172;-67
2024/02/08 03:05:13;;;;;;;20.47;9.73;;;;;;;;;;5048561;28;20186;-68
2024/02/08 03:07:42;;;;;;;24.03;10.00;;;;;;;;;;5046827;28;20294;-68
2024/02/08 03:10:07;;;;;;;20.20;9.77;;;;;;;;;;5052046;28;20173;-68
2024/02/08 03:12:32;;;;;;;18.63;9.27;;;;;;;;;;5067522;28;20636;-68
2024/02/08 03:14:58;;;;;;;18.20;9.83;;;;;;;;;;5042691;28;20231;-68
2024/02/08 03:17:23;;;;;;;25.13;10.30;;;;;;;;;;5066330;28;20571;-67
2024/02/08 03:19:49;;;;;;;18.60;9.30;;;;;;;;;;5069265;28;20188;-67
2024/02/08 03:22:14;;;;;;;19.40;9.67;;;;;;;;;;5065031;28;20215;-67
2024/02/08 03:24:40;;;;;;;18.63;10.37;;;;;;;;;;5068048;28;20187;-68
2024/02/08 03:27:05;;;;;;;25.13;10.43;;;;;;;;;;5065888;28;20259;-67
2024/02/08 03:29:34;;;;;;;17.40;9.17;;;;;;;;;;5069387;28;20169;-68
2024/02/08 03:31:59;;;;;;;18.33;9.93;;;;;;;;;;5064830;28;20256;-67
2024/02/08 03:34:29;;;;;;;22.80;10.80;;;;;;;;;;5064187;28;20268;-68
2024/02/08 03:36:56;;;;;;;22.33;10.80;;;;;;;;;;5067300;28;20199;-67
2024/02/08 03:39:27;;;;;;;20.43;9.33;;;;;;;;;;5069914;28;20231;-67
2024/02/08 03:41:59;;;;;;;19.53;9.53;;;;;;;;;;5062808;28;20292;-68
2024/02/08 03:44:25;;;;;;;21.73;9.87;;;;;;;;;;5066896;28;20179;-68
2024/02/08 03:46:51;;;;;;;17.87;10.23;;;;;;;;;;5067297;28;20196;-68
2024/02/08 03:49:16;;;;;;;21.60;10.40;;;;;;;;;;5058682;28;20250;-68
2024/02/08 03:51:42;;;;;;;19.67;9.60;;;;;;;;;;5064070;28;20181;-68
2024/02/08 03:54:08;;;;;;;22.90;9.97;;;;;;;;;;5063069;28;20179;-68
2024/02/08 03:56:36;;;;;;;18.77;8.90;;;;;;;;;;5059885;28;20193;-68
2024/02/08 03:59:07;;;;;;;20.17;10.73;;;;;;;;;;5053451;28;20229;-68
2024/02/08 04:01:32;;;;;;;16.27;9.20;;;;;;;;;;5063016;28;20999;-68
2024/02/08 04:04:11;;;;;;;22.77;10.87;;;;;;;;;;5062110;28;20201;-68
2024/02/08 04:06:37;;;;;;;24.43;10.70;;;;;;;;;;5063570;28;20193;-67
2024/02/08 04:09:09;;;;;;;23.30;10.10;;;;;;;;;;5045552;28;20418;-68
2024/02/08 04:55:19;;;;;;;23.87;11.40;;;;;;;;;;5062200;28;20623;-67
2024/02/08 04:57:44;;;;;;;23.43;11.23;;;;;;;;;;5068754;28;20221;-68
2024/02/08 05:00:12;;;;;;;17.27;10.07;;;;;;;;;;5069237;28;20173;-68
2024/02/08 05:02:38;;;;;;;22.53;10.70;;;;;;;;;;5054263;28;20193;-67
2024/02/08 05:05:06;;;;;;;27.33;11.53;;;;;;;;;;5059311;28;20173;-68
2024/02/08 05:07:32;;;;;;;20.13;11.73;;;;;;;;;;5049102;28;20201;-68
2024/02/08 05:09:58;;;;;;;24.93;12.03;;;;;;;;;;5064108;28;20760;-67
2024/02/08 05:12:24;;;;;;;29.40;11.53;;;;;;;;;;5066049;28;20188;-68
2024/02/08 05:14:49;;;;;;;21.53;10.50;;;;;;;;;;5067274;28;20177;-68
2024/02/08 05:17:14;;;;;;;23.77;10.17;;;;;;;;;;5066619;28;20215;-68
2024/02/08 05:19:43;;;;;;;22.73;11.33;;;;;;;;;;5055542;28;20185;-68
2024/02/08 05:22:11;;;;;;;24.87;10.87;;;;;;;;;;5040398;28;20215;-68
2024/02/08 05:24:36;;;;;;;25.93;11.00;;;;;;;;;;5069356;28;20675;-68
2024/02/08 05:27:02;;;;;;;25.53;11.00;;;;;;;;;;5069240;28;20208;-67
2024/02/08 05:29:28;;;;;;;20.80;9.33;;;;;;;;;;5063952;28;20656;-68
2024/02/08 05:31:53;;;;;;;18.57;9.77;;;;;;;;;;5044492;28;20196;-67
2024/02/08 05:34:21;;;;;;;23.30;9.33;;;;;;;;;;5065048;28;20185;-68
2024/02/08 05:36:48;;;;;;;26.13;10.30;;;;;;;;;;5066455;28;20688;-69
2024/02/08 05:39:14;;;;;;;19.40;9.50;;;;;;;;;;5054719;28;20173;-68
2024/02/08 05:41:44;;;;;;;23.53;9.30;;;;;;;;;;5062288;28;20213;-68
2024/02/08 05:44:09;;;;;;;25.53;9.20;;;;;;;;;;5063331;28;20558;-68
2024/02/08 05:46:40;;;;;;;17.03;8.27;;;;;;;;;;5059318;28;20189;-68
2024/02/08 05:49:11;;;;;;;17.90;8.13;;;;;;;;;;5055166;28;20176;-68
2024/02/08 05:51:37;;;;;;;27.70;8.70;;;;;;;;;;5062747;28;20671;-68
2024/02/08 05:54:02;;;;;;;21.43;8.93;;;;;;;;;;5048700;28;20208;-68
2024/02/08 05:56:33;;;;;;;19.77;7.50;;;;;;;;;;5059310;28;20758;-69
2024/02/08 05:59:01;;;;;;;18.53;7.63;;;;;;;;;;5062025;28;20581;-69
2024/02/08 06:01:31;;;;;;;16.53;7.00;;;;;;;;;;5063167;28;20193;-69
2024/02/08 06:04:00;;;;;;;21.13;7.80;;;;;;;;;;5039833;28;20658;-69
2024/02/08 06:06:34;;;;;;;24.00;9.47;;;;;;;;;;5067262;28;20656;-68
2024/02/08 06:09:09;;;;;;;19.17;8.27;;;;;;;;;;5045549;28;20168;-68
2024/02/08 06:11:37;;;;;;;19.33;7.40;;;;;;;;;;5070731;28;20734;-69
2024/02/08 06:14:12;;;;;;;25.07;8.10;;;;;;;;;;5070153;28;20587;-69
2024/02/08 06:16:46;;;;;;;17.37;8.30;;;;;;;;;;5047896;28;20231;-68
2024/02/08 06:19:14;;;;;;;27.70;8.67;;;;;;;;;;5073445;28;20176;-68
2024/02/08 06:21:40;;;;;;;25.10;7.77;;;;;;;;;;5066879;28;20232;-69
2024/02/08 06:26:58;;;;;;;19.97;10.47;;;;;;;;;;5064400;28;20208;-69
2024/02/08 06:29:26;;;;;;;31.63;9.50;;;;;;;;;;5069592;28;20181;-67
2024/02/08 06:32:02;;;;;;;20.87;8.90;;;;;;;;;;5075256;28;20180;-67
2024/02/08 06:34:42;;;;;;;22.70;8.83;;;;;;;;;;5067363;28;20168;-67
2024/02/08 06:37:25;;;;;;;19.93;8.03;;;;;;;;;;5068993;28;20196;-67
2024/02/08 06:39:55;;;;;;;24.57;8.93;;;;;;;;;;5062989;28;20193;-66
2024/02/08 06:42:31;;;;;;;21.17;8.13;;;;;;;;;;5064333;28;20262;-67
2024/02/08 06:48:14;;;;;;;21.93;8.63;;;;;;;;;;5071488;28;20277;-67
2024/02/08 07:37:17;;;;;;;17.77;7.30;;;;;;;;;;5061148;28;20200;-68
2024/02/08 07:39:46;;;;;;;20.20;7.00;;;;;;;;;;5064596;28;20576;-67
2024/02/08 07:42:32;;;;;;;20.70;7.80;;;;;;;;;;5067991;28;20204;-68
2024/02/08 07:44:57;;;;;;;14.40;6.13;;;;;;;;;;5060911;28;20177;-68
2024/02/08 07:47:24;;;;;;;14.07;6.67;;;;;;;;;;5064806;28;20237;-67
2024/02/08 07:49:57;;;;;;;16.17;6.23;;;;;;;;;;5063626;28;20226;-68
2024/02/08 07:52:23;;;;;;;26.90;7.03;;;;;;;;;;5067589;28;20845;-67
2024/02/08 07:55:14;;;;;;;19.87;6.63;;;;;;;;;;5064070;28;20168;-68
2024/02/08 07:57:48;;;;;;;13.93;6.37;;;;;;;;;;5068206;28;20201;-67
2024/02/08 08:00:32;;;;;;;17.90;6.97;;;;;;;;;;5065227;28;20184;-68
2024/02/08 08:02:58;;;;;;;13.37;6.00;;;;;;;;;;5066025;28;20269;-67
2024/02/08 08:05:23;;;;;;;20.07;6.37;;;;;;;;;;5064297;28;20256;-68
2024/02/08 08:07:59;;;;;;;11.20;6.17;;;;;;;;;;5059128;28;20668;-67
2024/02/08 08:10:30;;;;;;;9.67;5.47;;;;;;;;;;5060421;28;20181;-68
2024/02/08 08:12:55;;;;;;;15.83;7.00;;;;;;;;;;5062798;28;20230;-67
2024/02/08 08:15:22;;;;;;;14.77;5.20;;;;;;;;;;5062240;28;20189;-68
2024/02/08 08:17:59;;;;;;;22.57;6.50;;;;;;;;;;5069451;28;20188;-68
2024/02/08 08:23:25;;;;;;;13.87;5.87;;;;;;;;;;5060593;28;20215;-68
2024/02/08 08:26:39;;;;;;;13.20;4.83;;;;;;;;;;5083184;22;20726;-67
2024/02/08 08:28:51;;;;;;;12.00;4.97;;;;;;;;;;5015926;28;20686;-69
2024/02/08 08:31:51;;;;;;;11.27;4.10;;;;;;;;;;5026595;28;20182;-70
2024/02/08 08:36:58;;;;;;;15.67;5.03;;;;;;;;;;4998544;28;20556;-69
2024/02/08 08:42:16;;;;;;;15.30;3.87;;;;;;;;;;5028555;28;20205;-68
2024/02/08 08:44:48;;;;;;;11.87;4.93;;;;;;;;;;5026838;28;20217;-68
2024/02/08 08:47:13;;;;;;;9.10;3.40;;;;;;;;;;5026619;28;20206;-68
2024/02/08 08:49:39;;;;;;;10.63;4.67;;;;;;;;;;5030068;28;20179;-69
2024/02/08 08:52:06;;;;;;;7.07;4.23;;;;;;;;;;5027562;28;20178;-68
2024/02/08 08:54:36;;;;;;;10.03;4.57;;;;;;;;;;5033404;28;20174;-68
2024/02/08 08:57:12;;;;;;;18.53;4.20;;;;;;;;;;5019907;28;20680;-69
2024/02/08 08:59:42;;;;;;;10.47;4.20;;;;;;;;;;5027473;28;20279;-69
2024/02/08 09:02:07;;;;;;;9.87;4.37;;;;;;;;;;5008609;28;20917;-70
2024/02/08 09:04:35;;;;;;;10.60;4.00;;;;;;;;;;5029018;28;20281;-68
2024/02/08 09:07:10;;;;;;;22.33;5.27;;;;;;;;;;5024462;28;20576;-68
2024/02/08 09:09:54;;;;;;;11.70;5.23;;;;;;;;;;5028573;28;20239;-68
2024/02/08 09:12:28;;;;;;;10.47;4.50;;;;;;;;;;5027254;28;20186;-68
2024/02/08 09:14:53;;;;;;;9.00;4.57;;;;;;;;;;5024376;28;20185;-68
2024/02/08 09:17:25;;;;;;;8.80;4.53;;;;;;;;;;5025184;28;20206;-69
2024/02/08 09:19:59;;;;;;;14.23;5.10;;;;;;;;;;5025426;28;20551;-69
2024/02/08 09:22:24;;;;;;;12.43;4.40;;;;;;;;;;5026136;28;20206;-67
2024/02/08 09:24:50;;;;;;;10.97;4.60;;;;;;;;;;5022047;28;20634;-68
2024/02/08 09:27:16;;;;;;;13.23;4.10;;;;;;;;;;5023748;28;20221;-69
2024/02/08 09:29:42;;;;;;;10.53;4.97;;;;;;;;;;5022776;28;20178;-69
2024/02/08 09:34:54;;;;;;;12.70;5.17;;;;;;;;;;5020268;28;20189;-69
2024/02/08 09:37:19;;;;;;;11.77;4.73;;;;;;;;;;5026194;28;20206;-69
2024/02/08 09:39:58;;;;;;;13.17;4.60;;;;;;;;;;5022711;28;20178;-68
2024/02/08 09:42:27;;;;;;;11.97;5.07;;;;;;;;;;5023469;28;20229;-69
2024/02/08 09:47:51;;;;;;;13.20;5.67;;;;;;;;;;5026902;28;20197;-68
2024/02/08 09:50:21;;;;;;;9.60;4.03;;;;;;;;;;5008526;28;20174;-68
2024/02/08 09:52:56;;;;;;;13.10;3.90;;;;;;;;;;5025704;28;20435;-68
2024/02/08 09:55:22;;;;;;;12.20;4.57;;;;;;;;;;5026190;28;20178;-69
2024/02/08 09:57:47;;;;;;;14.53;3.80;;;;;;;;;;5020159;28;20275;-69
2024/02/08 10:00:54;;;;;;;12.80;5.27;;;;;;;;;;5024268;28;20271;-69
2024/02/08 10:03:04;;;;;;;7.47;4.10;;;;;;;;;;5021241;28;20205;-70
2024/02/08 10:05:51;;;;;;;14.47;4.90;;;;;;;;;;5023629;28;20451;-69
2024/02/08 10:08:28;;;;;;;6.93;3.77;;;;;;;;;;5024203;28;20615;-69
2024/02/08 10:11:10;;;;;;;11.73;4.30;;;;;;;;;;5025820;28;20645;-69
2024/02/08 10:13:55;;;;;;;13.70;4.37;;;;;;;;;;5026683;28;20186;-69
2024/02/08 10:16:29;;;;;;;9.73;3.70;;;;;;;;;;5021963;28;20200;-71
2024/02/08 10:19:02;;;;;;;7.90;3.97;;;;;;;;;;5030378;28;20653;-67
2024/02/08 10:21:29;;;;;;;9.87;4.17;;;;;;;;;;5022570;28;20253;-67
2024/02/08 10:24:11;;;;;;;17.13;4.30;;;;;;;;;;5027463;28;20882;-68
2024/02/08 10:26:40;;;;;;;10.83;5.87;;;;;;;;;;5006417;28;20232;-68
2024/02/08 10:29:07;;;;;;;15.13;6.37;;;;;;;;;;5027742;28;20174;-68
2024/02/08 10:31:37;;;;;;;12.87;4.70;;;;;;;;;;5023596;28;20646;-69
2024/02/08 10:34:23;;;;;;;11.30;4.20;;;;;;;;;;5025494;28;20228;-68
2024/02/08 10:36:48;;;;;;;13.97;4.83;;;;;;;;;;5023309;28;20206;-71
2024/02/08 10:39:26;;;;;;;13.57;5.10;;;;;;;;;;5020855;28;20200;-68
2024/02/08 10:41:58;;;;;;;11.13;4.53;;;;;;;;;;5007180;28;20301;-69
2024/02/08 10:44:27;;;;;;;17.83;5.83;;;;;;;;;;5006264;28;20194;-69
2024/02/08 10:47:06;;;;;;;16.97;5.50;;;;;;;;;;5025375;28;20190;-67
2024/02/08 10:49:35;;;;;;;14.80;5.67;;;;;;;;;;5023482;28;20930;-70
2024/02/08 10:52:01;;;;;;;13.20;5.53;;;;;;;;;;5008670;28;20178;-70
2024/02/08 10:54:39;;;;;;;14.87;4.70;;;;;;;;;;5037168;28;20196;-69
2024/02/08 10:57:09;;;;;;;12.70;5.00;;;;;;;;;;5026452;28;20206;-68
2024/02/08 10:59:50;;;;;;;13.10;5.20;;;;;;;;;;5030747;28;20178;-69
2024/02/08 11:02:31;;;;;;;12.47;5.67;;;;;;;;;;5028132;28;20214;-68
2024/02/08 11:05:12;;;;;;;9.43;5.13;;;;;;;;;;5025488;28;20185;-68
2024/02/08 11:07:45;;;;;;;13.33;4.47;;;;;;;;;;5022625;28;20208;-70
2024/02/08 11:10:10;;;;;;;15.03;5.73;;;;;;;;;;5030028;28;20182;-69
2024/02/08 11:12:39;;;;;;;11.63;4.77;;;;;;;;;;5028460;28;20194;-70
2024/02/08 11:15:13;;;;;;;15.67;5.20;;;;;;;;;;5012807;28;20677;-69
2024/02/08 11:17:39;;;;;;;14.33;5.00;;;;;;;;;;5028465;28;20223;-71
2024/02/08 11:20:16;;;;;;;11.13;5.03;;;;;;;;;;5030294;28;20185;-70
2024/02/08 11:22:42;;;;;;;18.50;5.97;;;;;;;;;;5025007;28;20205;-68
2024/02/08 11:25:19;;;;;;;15.97;5.33;;;;;;;;;;5028296;28;20191;-69
2024/02/08 11:27:51;;;;;;;10.77;4.67;;;;;;;;;;5026426;28;20222;-69
2024/02/08 11:30:20;;;;;;;10.87;4.73;;;;;;;;;;5028942;28;20704;-68
2024/02/08 11:33:01;;;;;;;14.00;5.23;;;;;;;;;;5028291;28;20183;-69
2024/02/08 11:35:29;;;;;;;9.93;4.40;;;;;;;;;;5030015;28;20189;-69
2024/02/08 11:37:56;;;;;;;10.30;4.77;;;;;;;;;;5011006;28;20355;-69
2024/02/08 11:40:33;;;;;;;12.30;5.07;;;;;;;;;;5028094;28;20327;-69
2024/02/08 11:43:05;;;;;;;16.10;5.13;;;;;;;;;;5028610;28;20177;-69
2024/02/08 11:45:31;;;;;;;9.30;4.13;;;;;;;;;;5028832;28;20186;-68
2024/02/08 11:47:58;;;;;;;9.60;4.57;;;;;;;;;;5030173;28;20248;-68
2024/02/08 11:50:32;;;;;;;16.33;4.47;;;;;;;;;;5029507;28;20546;-68
2024/02/08 11:53:04;;;;;;;12.17;4.97;;;;;;;;;;5027917;28;20180;-69
2024/02/08 11:55:30;;;;;;;11.37;5.30;;;;;;;;;;5027636;28;20627;-68
2024/02/08 11:57:56;;;;;;;12.20;5.50;;;;;;;;;;5029071;28;20207;-69
2024/02/08 12:00:24;;;;;;;12.80;5.00;;;;;;;;;;5026070;28;20196;-69
2024/02/08 12:02:59;;;;;;;15.73;5.93;;;;;;;;;;5002819;28;20229;-68
2024/02/08 12:05:24;;;;;;;12.73;5.57;;;;;;;;;;5026377;28;20188;-68
2024/02/08 12:07:50;;;;;;;12.80;4.83;;;;;;;;;;5029642;28;20190;-68
2024/02/08 12:10:16;;;;;;;10.60;6.13;;;;;;;;;;5028394;28;20614;-67
2024/02/08 12:12:44;;;;;;;12.33;5.20;;;;;;;;;;5029458;28;20227;-69
2024/02/08 12:15:11;;;;;;;12.57;5.43;;;;;;;;;;5032573;28;20178;-70
2024/02/08 12:17:36;;;;;;;13.93;6.57;;;;;;;;;;5028834;28;20452;-68
2024/02/08 12:20:01;;;;;;;14.73;5.40;;;;;;;;;;5027214;28;20869;-69
2024/02/08 12:22:29;;;;;;;14.73;6.20;;;;;;;;;;5026918;28;20236;-69
2024/02/08 12:25:02;;;;;;;14.23;5.93;;;;;;;;;;5023988;28;20179;-69
2024/02/08 12:27:29;;;;;;;14.20;5.73;;;;;;;;;;5024446;28;20283;-69
2024/02/08 12:29:56;;;;;;;14.97;6.00;;;;;;;;;;5007829;28;20184;-69
2024/02/08 12:32:27;;;;;;;12.63;5.77;;;;;;;;;;5024732;28;20562;-69
2024/02/08 12:34:54;;;;;;;13.27;6.90;;;;;;;;;;5017012;28;20257;-70
2024/02/08 12:37:22;;;;;;;14.50;6.00;;;;;;;;;;5025673;28;20202;-68
2024/02/08 12:39:49;;;;;;;15.33;5.93;;;;;;;;;;5023897;28;20186;-69
2024/02/08 12:42:15;;;;;;;13.40;6.53;;;;;;;;;;5009363;28;20578;-69
2024/02/08 12:44:48;;;;;;;18.87;6.60;;;;;;;;;;5027773;28;20205;-70
2024/02/08 12:47:17;;;;;;;11.80;5.60;;;;;;;;;;5028062;28;20210;-69
2024/02/08 12:49:44;;;;;;;13.93;6.13;;;;;;;;;;5028876;28;20575;-69
2024/02/08 12:52:11;;;;;;;15.63;6.40;;;;;;;;;;5022875;28;20728;-68
2024/02/08 12:54:37;;;;;;;19.53;7.53;;;;;;;;;;5028580;28;20182;-68
2024/02/08 12:57:07;;;;;;;11.97;5.43;;;;;;;;;;5027655;28;20198;-68
2024/02/08 12:59:33;;;;;;;15.60;6.77;;;;;;;;;;5025814;28;20190;-69
2024/02/08 13:02:08;;;;;;;15.93;6.93;;;;;;;;;;5027205;28;20200;-68
2024/02/08 13:04:33;;;;;;;17.10;5.60;;;;;;;;;;5024761;28;20649;-68
2024/02/08 13:06:59;;;;;;;16.90;6.90;;;;;;;;;;5024572;28;20289;-69
2024/02/08 13:09:29;;;;;;;14.50;6.77;;;;;;;;;;5019841;28;20174;-69
2024/02/08 13:12:20;;;;;;;21.10;6.97;;;;;;;;;;5025754;28;20220;-69
2024/02/08 13:14:48;;;;;;;17.03;6.60;;;;;;;;;;5023110;28;20174;-68
2024/02/08 13:17:20;;;;;;;17.43;6.60;;;;;;;;;;5024588;28;20201;-70
2024/02/08 13:19:45;;;;;;;12.60;5.40;;;;;;;;;;5025796;28;20190;-69
2024/02/08 13:22:11;;;;;;;19.83;6.10;;;;;;;;;;5027727;28;20194;-70
2024/02/08 13:24:36;;;;;;;9.37;5.50;;;;;;;;;;5009000;28;20179;-70
2024/02/08 13:27:03;;;;;;;12.93;6.17;;;;;;;;;;5026895;28;20237;-68
2024/02/08 13:29:28;;;;;;;15.20;6.10;;;;;;;;;;5023897;28;20281;-70
2024/02/08 13:31:54;;;;;;;12.87;5.57;;;;;;;;;;5022677;28;20548;-69
2024/02/08 13:34:21;;;;;;;14.47;6.33;;;;;;;;;;5025200;28;20642;-69
2024/02/08 13:36:46;;;;;;;12.07;5.50;;;;;;;;;;5025349;28;20696;-68
2024/02/08 13:39:11;;;;;;;15.17;6.27;;;;;;;;;;5024488;28;20178;-68
2024/02/08 13:41:37;;;;;;;10.90;5.33;;;;;;;;;;5024333;28;21418;-69
2024/02/08 13:44:02;;;;;;;11.37;5.50;;;;;;;;;;5026188;28;20224;-70
2024/02/08 13:46:30;;;;;;;14.50;6.10;;;;;;;;;;5020277;28;20230;-70
2024/02/08 13:48:57;;;;;;;9.93;5.53;;;;;;;;;;5022885;28;20232;-70
2024/02/08 13:51:22;;;;;;;12.50;6.10;;;;;;;;;;5023818;28;20186;-70
2024/02/08 13:53:49;;;;;;;11.23;5.67;;;;;;;;;;5025370;28;20197;-70
2024/02/08 13:56:15;;;;;;;10.03;5.13;;;;;;;;;;5024310;28;20202;-69
2024/02/08 13:58:40;;;;;;;10.93;5.37;;;;;;;;;;5024546;28;20209;-70
2024/02/08 14:01:06;;;;;;;10.53;6.17;;;;;;;;;;5027977;28;20599;-69
2024/02/08 14:03:32;;;;;;;15.40;5.17;;;;;;;;;;5026179;28;20658;-69
2024/02/08 14:05:59;;;;;;;14.90;5.90;;;;;;;;;;5022272;28;20877;-70
2024/02/08 14:08:27;;;;;;;13.90;6.47;;;;;;;;;;5023284;28;20166;-70
2024/02/08 14:10:53;;;;;;;14.03;4.53;;;;;;;;;;5024476;28;20182;-69
2024/02/08 14:13:28;;;;;;;11.27;5.17;;;;;;;;;;5026190;28;20178;-69
2024/02/08 14:16:00;;;;;;;14.33;5.67;;;;;;;;;;5025478;28;20181;-70
2024/02/08 14:18:31;;;;;;;9.53;5.03;;;;;;;;;;5026538;28;20243;-69
2024/02/08 14:20:57;;;;;;;13.43;4.90;;;;;;;;;;5030871;28;20556;-71
2024/02/08 14:23:38;;;;;;;13.53;5.77;;;;;;;;;;5004916;28;20178;-71
2024/02/08 14:29:04;;;;;;;13.47;5.33;;;;;;;;;;5157743;22;20230;-84
2024/02/08 14:31:26;;;;;;;12.63;5.13;;;;;;;;;;5034802;28;20193;-83
2024/02/08 14:34:26;;;;;;;11.17;5.83;;;;;;;;;;5017748;28;20179;-84
2024/02/08 14:36:52;;;;;;;13.60;6.17;;;;;;;;;;5025740;28;20274;-84
2024/02/08 14:39:26;;;;;;;14.80;5.47;;;;;;;;;;5055135;22;20306;-69
2024/02/08 14:41:55;;;;;;;10.23;4.73;;;;;;;;;;5050652;28;20678;-69
2024/02/08 14:44:24;;;;;;;10.57;5.30;;;;;;;;;;5050101;28;20182;-69
2024/02/08 14:46:50;;;;;;;11.23;4.50;;;;;;;;;;5050457;28;20237;-68
2024/02/08 14:49:23;;;;;;;7.67;4.43;;;;;;;;;;5045278;28;20276;-68
2024/02/08 14:51:48;;;;;;;9.47;4.70;;;;;;;;;;5050640;28;20743;-69
2024/02/08 14:54:13;;;;;;;9.37;4.73;;;;;;;;;;5050029;28;20194;-70
2024/02/08 14:56:41;;;;;;;10.63;4.03;;;;;;;;;;5046994;28;20205;-69
2024/02/08 15:01:42;;;;;;;12.50;4.10;;;;;;;;;;5050725;28;20213;-69
2024/02/08 15:04:17;;;;;;;8.03;3.90;;;;;;;;;;5049590;28;20182;-70
2024/02/08 15:14:35;;;;;;;6.63;2.87;;;;;;;;;;5047475;28;20170;-69
2024/02/08 15:17:07;;;;;;;5.73;4.07;;;;;;;;;;5048646;28;20201;-70
2024/02/08 15:19:32;;;;;;;6.87;3.57;;;;;;;;;;5044534;28;20182;-70
2024/02/08 15:22:03;;;;;;;4.87;2.87;;;;;;;;;;5034557;28;20255;-70
2024/02/08 15:24:29;;;;;;;7.37;3.30;;;;;;;;;;5036400;28;20185;-69
2024/02/08 15:27:07;;;;;;;6.83;3.17;;;;;;;;;;5044531;28;21068;-70
2024/02/08 15:29:35;;;;;;;7.87;2.97;;;;;;;;;;5045113;28;20219;-67
2024/02/08 15:32:05;;;;;;;9.43;3.50;;;;;;;;;;5049982;28;20205;-69
2024/02/08 15:34:46;;;;;;;5.30;2.70;;;;;;;;;;5045747;28;20173;-69
2024/02/08 15:37:28;;;;;;;4.77;2.70;;;;;;;;;;5031981;28;20248;-70
2024/02/08 15:42:20;;;;;;;4.73;2.43;;;;;;;;;;5050543;28;20217;-68
2024/02/08 15:44:47;;;;;;;6.07;2.43;;;;;;;;;;5031592;28;20186;-67
2024/02/08 15:47:15;;;;;;;4.70;2.17;;;;;;;;;;5048745;28;20251;-68
2024/02/08 15:49:44;;;;;;;4.77;1.90;;;;;;;;;;5047175;28;20269;-68
2024/02/08 15:52:15;;;;;;;4.83;2.37;;;;;;;;;;5050242;28;20217;-68
2024/02/08 15:54:41;;;;;;;5.67;3.30;;;;;;;;;;5044598;28;20709;-68
2024/02/08 15:57:12;;;;;;;6.17;3.03;;;;;;;;;;5049208;28;20197;-69
2024/02/08 15:59:37;;;;;;;5.10;3.10;;;;;;;;;;5032622;28;20584;-68
2024/02/08 16:02:05;;;;;;;3.67;2.70;;;;;;;;;;5052537;28;20202;-69
2024/02/08 16:07:12;;;;;;;3.80;2.83;;;;;;;;;;5048187;28;20209;-69
2024/02/08 16:09:49;;;;;;;5.37;3.10;;;;;;;;;;5045605;28;20568;-70
2024/02/08 16:12:36;;;;;;;3.93;2.77;;;;;;;;;;5046834;28;20177;-68
2024/02/08 16:15:07;;;;;;;4.63;3.40;;;;;;;;;;5043394;28;20197;-69
2024/02/08 16:20:05;;;;;;;4.67;3.13;;;;;;;;;;5049876;28;20661;-69
2024/02/08 16:22:37;;;;;;;6.77;3.60;;;;;;;;;;5046232;28;20615;-68
2024/02/08 16:25:03;;;;;;;4.80;3.43;;;;;;;;;;5045118;28;20174;-68
2024/02/08 16:27:28;;;;;;;6.40;3.87;;;;;;;;;;5047788;28;20220;-67
2024/02/08 16:30:07;;;;;;;5.93;4.43;;;;;;;;;;5048711;28;20174;-70
2024/02/08 16:32:55;;;;;;;6.00;4.43;;;;;;;;;;5030726;28;20529;-70
2024/02/08 16:35:37;;;;;;;7.57;4.57;;;;;;;;;;5048595;28;20194;-68
2024/02/08 16:38:08;;;;;;;5.80;4.37;;;;;;;;;;5043906;28;20588;-70
2024/02/08 16:40:43;;;;;;;5.73;4.30;;;;;;;;;;5044433;28;20205;-70
2024/02/08 16:43:12;;;;;;;5.80;4.60;;;;;;;;;;5049716;28;20204;-70
2024/02/08 16:45:56;;;;;;;9.10;4.53;;;;;;;;;;5049842;28;20174;-70
2024/02/08 16:48:23;;;;;;;8.13;5.10;;;;;;;;;;5042059;28;20255;-70
2024/02/08 16:50:49;;;;;;;5.13;4.33;;;;;;;;;;5051001;28;20209;-70
2024/02/08 16:53:19;;;;;;;6.27;4.90;;;;;;;;;;5049477;28;20649;-69
2024/02/08 16:55:48;;;;;;;6.70;4.80;;;;;;;;;;5031066;28;20232;-71